Time;durP1;ratioP1;P1;durP2;ratioP2;P2;SDS_P1;SDS_P2;PMS_P1;PMS_P2;Temp;Humidity;BMP_temperature;BMP_pressure;BME280_temperature;BME280_humidity;BME280_pressure;Samples;Min_cycle;Max_cycle;Signal;HPM_P1;HPM_P2
2021/11/18 00:00:42;;;;;;;23.45;6.97;;;6.30;99.90;;;;;;5048003;28;20115;-76
2021/11/18 00:03:09;;;;;;;17.95;6.88;;;6.30;99.90;;;;;;5048864;28;20028;-77
2021/11/18 00:05:35;;;;;;;26.73;8.15;;;6.20;99.90;;;;;;5066680;28;20032;-77
2021/11/18 00:08:03;;;;;;;23.83;8.35;;;6.20;99.90;;;;;;5069970;28;20032;-76
2021/11/18 00:10:31;;;;;;;21.48;6.97;;;6.20;99.90;;;;;;5069520;28;20032;-76
2021/11/18 00:12:59;;;;;;;20.67;7.20;;;6.20;99.90;;;;;;5070152;28;20021;-77
2021/11/18 00:15:26;;;;;;;25.23;8.38;;;6.20;99.90;;;;;;5058872;28;20393;-73
2021/11/18 00:18:05;;;;;;;24.27;8.55;;;6.20;99.90;;;;;;5070569;28;20035;-74
2021/11/18 00:20:35;;;;;;;24.05;8.15;;;6.20;99.90;;;;;;5070281;28;20046;-74
2021/11/18 00:23:01;;;;;;;21.38;7.90;;;6.20;99.90;;;;;;5051463;28;20112;-73
2021/11/18 00:25:27;;;;;;;32.65;8.30;;;6.10;99.90;;;;;;5049221;28;20119;-74
2021/11/18 00:27:53;;;;;;;33.55;7.63;;;6.10;99.90;;;;;;5051960;28;20044;-74
2021/11/18 00:30:19;;;;;;;27.73;9.20;;;6.10;99.90;;;;;;5070038;28;20613;-73
2021/11/18 00:32:45;;;;;;;21.55;7.82;;;6.10;99.90;;;;;;5050686;28;20103;-74
2021/11/18 00:35:15;;;;;;;29.65;9.48;;;6.10;99.90;;;;;;5046174;28;20017;-74
2021/11/18 00:37:43;;;;;;;22.73;8.63;;;6.10;99.90;;;;;;5051805;28;20410;-74
2021/11/18 00:40:09;;;;;;;23.20;8.07;;;6.10;99.90;;;;;;5069959;28;20024;-74
2021/11/18 00:42:35;;;;;;;20.10;8.93;;;6.10;99.90;;;;;;5066977;28;20035;-75
2021/11/18 00:45:01;;;;;;;30.95;8.98;;;6.10;99.90;;;;;;5045893;28;20033;-75
2021/11/18 00:47:27;;;;;;;23.92;8.50;;;6.10;99.90;;;;;;5065588;28;20071;-75
2021/11/18 00:49:53;;;;;;;28.67;9.88;;;6.10;99.90;;;;;;5069806;28;20397;-75
2021/11/18 00:52:20;;;;;;;25.70;9.38;;;6.00;99.90;;;;;;5065258;28;20028;-75
2021/11/18 00:54:46;;;;;;;20.80;8.93;;;6.10;99.90;;;;;;5069867;28;20056;-75
2021/11/18 00:57:11;;;;;;;29.98;9.82;;;6.00;99.90;;;;;;5071004;28;20060;-75
2021/11/18 00:59:37;;;;;;;24.00;9.20;;;6.00;99.90;;;;;;5073975;28;20029;-75
2021/11/18 01:02:03;;;;;;;32.45;9.50;;;5.90;99.90;;;;;;5054395;28;20034;-74
2021/11/18 01:04:29;;;;;;;26.25;10.38;;;5.90;99.90;;;;;;5070472;28;20482;-75
2021/11/18 01:06:56;;;;;;;29.08;9.52;;;5.90;99.90;;;;;;5052109;28;20087;-75
2021/11/18 01:09:22;;;;;;;30.60;10.90;;;5.80;99.90;;;;;;5060941;28;20446;-75
2021/11/18 01:11:47;;;;;;;24.05;10.20;;;5.80;99.90;;;;;;5073516;28;20041;-75
2021/11/18 01:14:15;;;;;;;32.30;10.52;;;5.70;99.90;;;;;;5055296;28;20618;-75
2021/11/18 01:16:43;;;;;;;21.73;8.88;;;5.70;99.90;;;;;;5072613;28;20398;-75
2021/11/18 01:19:09;;;;;;;27.55;9.18;;;5.70;99.90;;;;;;5072921;28;20472;-75
2021/11/18 01:21:37;;;;;;;27.25;9.27;;;5.70;99.90;;;;;;5069025;28;20025;-75
2021/11/18 01:24:04;;;;;;;26.95;10.38;;;5.70;99.90;;;;;;5071872;28;20082;-75
2021/11/18 01:26:30;;;;;;;23.20;9.82;;;5.70;99.90;;;;;;5065643;28;20370;-75
2021/11/18 01:28:55;;;;;;;23.98;9.75;;;5.70;99.90;;;;;;5072530;28;20107;-75
2021/11/18 01:31:21;;;;;;;26.83;12.45;;;5.70;99.90;;;;;;5068467;28;20025;-75
2021/11/18 01:33:48;;;;;;;36.58;10.50;;;5.70;99.90;;;;;;5071697;28;20032;-75
2021/11/18 01:36:14;;;;;;;22.83;9.88;;;5.80;99.90;;;;;;5067453;28;20055;-75
2021/11/18 01:38:40;;;;;;;33.03;11.05;;;5.80;99.90;;;;;;5053864;28;20040;-75
2021/11/18 01:41:20;;;;;;;23.00;10.27;;;5.80;99.90;;;;;;5057155;28;20025;-75
2021/11/18 01:43:52;;;;;;;34.92;11.27;;;5.90;99.90;;;;;;5054443;28;20386;-75
2021/11/18 01:46:22;;;;;;;22.08;9.30;;;5.90;99.90;;;;;;5069193;28;20032;-74
2021/11/18 01:48:50;;;;;;;24.73;10.02;;;5.90;99.90;;;;;;5073312;28;20033;-75
2021/11/18 01:51:17;;;;;;;23.38;10.15;;;5.90;99.90;;;;;;5070612;28;20028;-75
2021/11/18 01:53:46;;;;;;;27.00;9.90;;;6.00;99.90;;;;;;5070496;28;20027;-75
2021/11/18 01:56:18;;;;;;;29.25;10.65;;;6.00;99.90;;;;;;5064283;28;20099;-75
2021/11/18 01:58:49;;;;;;;26.58;9.95;;;5.90;99.90;;;;;;5055795;28;20111;-75
2021/11/18 02:01:15;;;;;;;29.27;11.02;;;6.00;99.90;;;;;;5052584;28;20024;-75
2021/11/18 02:03:42;;;;;;;24.58;9.77;;;6.00;99.90;;;;;;5068633;28;20028;-75
2021/11/18 02:06:25;;;;;;;29.30;10.18;;;6.00;99.90;;;;;;5051364;28;20158;-75
2021/11/18 02:08:51;;;;;;;;;;;6.00;99.90;;;;;;5071916;28;20021;-75
2021/11/18 02:11:30;;;;;;;25.45;9.60;;;6.10;99.90;;;;;;5069183;28;19909;-75
2021/11/18 02:13:57;;;;;;;27.15;10.48;;;6.20;99.90;;;;;;5070175;28;20024;-75
2021/11/18 02:16:24;;;;;;;31.00;10.52;;;6.20;99.90;;;;;;5053304;28;20112;-75
2021/11/18 02:18:49;;;;;;;28.40;10.98;;;6.20;99.90;;;;;;5055078;28;20478;-75
2021/11/18 02:21:16;;;;;;;37.10;11.43;;;6.30;99.90;;;;;;5070658;28;20025;-74
2021/11/18 02:23:49;;;;;;;25.60;10.20;;;6.30;99.90;;;;;;5051180;28;20016;-75
2021/11/18 02:26:17;;;;;;;23.83;9.88;;;6.30;99.90;;;;;;5067900;28;20033;-75
2021/11/18 02:28:45;;;;;;;27.67;11.90;;;6.30;99.90;;;;;;5071980;28;20028;-76
2021/11/18 02:31:22;;;;;;;36.92;11.40;;;6.30;99.90;;;;;;5070194;28;20028;-75
2021/11/18 02:33:48;;;;;;;30.30;10.38;;;6.30;99.90;;;;;;5071299;28;20032;-75
2021/11/18 02:36:14;;;;;;;26.30;10.55;;;6.40;99.90;;;;;;5070137;28;20028;-77
2021/11/18 02:38:40;;;;;;;29.33;11.32;;;6.40;99.90;;;;;;5052460;28;20033;-77
2021/11/18 02:41:09;;;;;;;29.27;10.25;;;6.50;99.90;;;;;;5053020;28;20086;-77
2021/11/18 02:43:35;;;;;;;33.90;11.38;;;6.60;99.90;;;;;;5086292;28;20028;-76
2021/11/18 02:46:00;;;;;;;30.50;10.85;;;6.60;99.90;;;;;;5070062;28;20576;-76
2021/11/18 02:48:26;;;;;;;29.25;11.10;;;6.60;99.90;;;;;;5040243;28;20036;-77
2021/11/18 02:50:55;;;;;;;29.40;10.55;;;6.70;99.90;;;;;;5064243;28;20021;-77
2021/11/18 02:53:21;;;;;;;23.00;9.35;;;6.70;99.90;;;;;;5050907;28;20025;-77
2021/11/18 02:55:49;;;;;;;30.50;10.90;;;6.80;99.90;;;;;;5067790;28;20066;-77
2021/11/18 02:58:15;;;;;;;22.20;10.73;;;6.80;99.90;;;;;;5051806;28;20029;-77
2021/11/18 03:00:52;;;;;;;35.33;10.93;;;6.80;99.90;;;;;;5070128;28;20029;-77
2021/11/18 03:03:19;;;;;;;23.90;10.82;;;6.80;99.90;;;;;;5070092;28;20029;-77
2021/11/18 03:05:46;;;;;;;27.88;10.50;;;6.70;99.90;;;;;;5053484;28;20474;-77
2021/11/18 03:08:12;;;;;;;27.73;9.93;;;6.80;99.90;;;;;;5068256;28;20047;-77
2021/11/18 03:10:38;;;;;;;40.38;10.60;;;6.70;99.90;;;;;;5072767;28;20027;-77
2021/11/18 03:13:05;;;;;;;33.90;11.55;;;6.70;99.90;;;;;;5072764;28;20390;-77
2021/11/18 03:15:30;;;;;;;29.30;11.25;;;6.70;99.90;;;;;;5070423;28;20078;-77
2021/11/18 03:17:56;;;;;;;34.10;10.77;;;6.70;99.90;;;;;;5067041;28;20539;-76
2021/11/18 03:20:24;;;;;;;31.48;10.88;;;6.70;99.90;;;;;;5050656;28;20199;-76
2021/11/18 03:22:50;;;;;;;40.08;13.10;;;6.70;99.90;;;;;;5067052;28;20025;-77
2021/11/18 03:25:18;;;;;;;40.17;11.88;;;6.70;99.90;;;;;;5051263;28;20025;-77
2021/11/18 03:27:44;;;;;;;32.42;11.73;;;6.70;99.90;;;;;;5055781;28;20031;-77
2021/11/18 03:30:15;;;;;;;37.85;11.50;;;6.70;99.90;;;;;;5068019;28;20029;-77
2021/11/18 03:32:41;;;;;;;29.08;11.10;;;6.70;99.90;;;;;;5053451;28;20025;-76
2021/11/18 03:35:08;;;;;;;31.50;10.70;;;6.70;99.90;;;;;;5064788;28;20028;-77
2021/11/18 03:37:33;;;;;;;31.48;10.73;;;6.70;99.90;;;;;;5052840;28;20109;-76
2021/11/18 03:39:59;;;;;;;29.05;11.32;;;6.70;99.90;;;;;;5070941;28;20055;-77
2021/11/18 03:42:25;;;;;;;28.90;10.68;;;6.70;99.90;;;;;;5071306;28;20032;-77
2021/11/18 03:44:50;;;;;;;42.88;12.27;;;6.70;99.90;;;;;;5070077;28;20051;-76
2021/11/18 03:47:16;;;;;;;29.98;12.38;;;6.80;99.90;;;;;;5048423;28;20024;-74
2021/11/18 03:49:42;;;;;;;27.67;10.95;;;6.70;99.90;;;;;;5070985;28;20212;-76
2021/11/18 03:52:11;;;;;;;32.15;12.38;;;6.80;99.90;;;;;;5070662;28;20078;-76
2021/11/18 03:54:39;;;;;;;40.65;11.80;;;6.80;99.90;;;;;;5067662;28;20142;-77
2021/11/18 03:57:05;;;;;;;35.17;13.77;;;6.80;99.90;;;;;;5068402;28;20470;-77
2021/11/18 03:59:36;;;;;;;34.85;12.63;;;6.80;99.90;;;;;;5071188;28;20028;-77
2021/11/18 04:02:04;;;;;;;32.88;13.45;;;6.80;99.90;;;;;;5068052;28;20032;-77
2021/11/18 04:04:37;;;;;;;34.53;13.07;;;6.80;99.90;;;;;;5046865;28;20039;-76
2021/11/18 04:07:03;;;;;;;36.03;13.10;;;6.90;99.90;;;;;;5044736;28;20036;-77
2021/11/18 04:09:29;;;;;;;45.95;14.20;;;6.80;99.90;;;;;;5070195;28;20086;-77
2021/11/18 04:11:59;;;;;;;37.05;14.23;;;6.80;99.90;;;;;;5052055;28;20032;-77
2021/11/18 04:14:26;;;;;;;35.53;12.95;;;6.80;99.90;;;;;;5068459;28;20020;-76
2021/11/18 04:16:51;;;;;;;40.40;14.18;;;6.90;99.90;;;;;;5067563;28;20068;-77
2021/11/18 04:19:17;;;;;;;37.38;14.05;;;6.90;99.90;;;;;;5052783;28;20059;-77
2021/11/18 04:21:44;;;;;;;35.83;13.27;;;6.90;99.90;;;;;;5070088;28;20038;-77
2021/11/18 04:24:13;;;;;;;37.35;13.98;;;6.90;99.90;;;;;;5050752;28;20020;-77
2021/11/18 04:26:41;;;;;;;40.58;13.88;;;6.90;99.90;;;;;;5068354;28;20832;-77
2021/11/18 04:29:07;;;;;;;35.03;14.43;;;6.90;99.90;;;;;;5071047;28;20031;-76
2021/11/18 04:31:33;;;;;;;40.65;14.00;;;6.90;99.90;;;;;;5072917;28;20032;-77
2021/11/18 04:33:59;;;;;;;40.30;13.95;;;6.90;99.90;;;;;;5069957;28;20032;-77
2021/11/18 04:36:27;;;;;;;39.75;14.82;;;7.00;99.90;;;;;;5046846;28;20025;-74
2021/11/18 04:38:52;;;;;;;40.78;13.63;;;6.90;99.90;;;;;;5074466;28;20032;-73
2021/11/18 04:41:21;;;;;;;32.22;13.18;;;7.00;99.90;;;;;;5073466;28;20025;-74
2021/11/18 04:43:47;;;;;;;36.00;13.82;;;7.00;99.90;;;;;;5052574;28;20021;-74
2021/11/18 04:46:14;;;;;;;35.88;14.48;;;7.00;99.90;;;;;;5071715;28;20028;-74
2021/11/18 04:48:41;;;;;;;43.08;13.75;;;7.00;99.90;;;;;;5074386;28;20036;-74
2021/11/18 04:51:10;;;;;;;32.58;12.95;;;7.00;99.90;;;;;;5074854;28;20056;-73
2021/11/18 04:53:36;;;;;;;34.97;12.68;;;6.90;99.90;;;;;;5051998;28;20029;-74
2021/11/18 04:56:03;;;;;;;42.58;14.15;;;6.90;99.90;;;;;;5054728;28;20593;-74
2021/11/18 04:58:29;;;;;;;42.67;13.27;;;6.90;99.90;;;;;;5072333;28;20401;-74
2021/11/18 05:00:57;;;;;;;35.47;13.52;;;6.90;99.90;;;;;;5056314;28;20024;-74
2021/11/18 05:03:26;;;;;;;36.63;12.88;;;6.90;99.90;;;;;;5067933;28;20494;-74
2021/11/18 05:05:51;;;;;;;41.08;13.60;;;6.90;99.90;;;;;;5056301;28;20036;-74
2021/11/18 05:08:17;;;;;;;34.80;12.10;;;6.90;99.90;;;;;;5070392;28;20021;-73
2021/11/18 05:10:46;;;;;;;41.50;13.43;;;7.00;99.90;;;;;;5074481;28;20039;-74
2021/11/18 05:13:13;;;;;;;38.78;13.82;;;7.00;99.90;;;;;;5051654;28;20033;-75
2021/11/18 05:15:44;;;;;;;38.88;13.35;;;7.00;99.90;;;;;;5052423;28;20399;-74
2021/11/18 05:18:10;;;;;;;34.15;13.48;;;7.00;99.90;;;;;;5064968;28;20050;-74
2021/11/18 05:20:37;;;;;;;41.33;13.30;;;7.10;99.90;;;;;;5049877;28;20078;-74
2021/11/18 05:23:03;;;;;;;35.55;13.02;;;7.10;99.90;;;;;;5049558;28;20028;-74
2021/11/18 05:25:31;;;;;;;41.10;13.00;;;7.10;99.90;;;;;;5070712;28;20032;-74
2021/11/18 05:27:58;;;;;;;42.08;12.90;;;7.10;99.90;;;;;;5044908;28;20385;-73
2021/11/18 05:30:27;;;;;;;38.28;12.20;;;7.10;99.90;;;;;;5070137;28;20024;-74
2021/11/18 05:32:55;;;;;;;41.97;14.65;;;7.10;99.90;;;;;;5069790;28;20020;-74
2021/11/18 05:35:22;;;;;;;47.97;13.57;;;7.10;99.90;;;;;;5053981;28;20374;-75
2021/11/18 05:37:47;;;;;;;43.38;14.05;;;7.10;99.90;;;;;;5055040;28;20434;-74
2021/11/18 05:40:14;;;;;;;40.35;13.32;;;7.20;99.90;;;;;;5063203;28;20029;-75
2021/11/18 05:42:40;;;;;;;45.70;13.25;;;7.20;99.90;;;;;;5071341;28;20025;-74
2021/11/18 05:45:09;;;;;;;39.60;12.23;;;7.20;99.90;;;;;;5072642;28;20034;-75
2021/11/18 05:47:34;;;;;;;44.08;12.90;;;7.20;99.90;;;;;;5070236;28;20025;-74
2021/11/18 05:50:00;;;;;;;39.75;12.82;;;7.30;99.90;;;;;;5053882;28;20060;-75
2021/11/18 05:52:26;;;;;;;37.97;12.75;;;7.30;99.90;;;;;;5073318;28;20363;-74
2021/11/18 05:54:53;;;;;;;39.80;12.85;;;7.30;99.90;;;;;;5070713;28;20078;-73
2021/11/18 05:57:19;;;;;;;48.25;14.35;;;7.30;99.90;;;;;;5071164;28;20093;-74
2021/11/18 05:59:45;;;;;;;38.97;12.65;;;7.40;99.90;;;;;;5061205;28;20113;-75
2021/11/18 06:02:10;;;;;;;48.13;13.43;;;7.40;99.90;;;;;;5064198;28;20386;-75
2021/11/18 06:04:36;;;;;;;35.42;12.23;;;7.40;99.90;;;;;;5049168;28;20030;-75
2021/11/18 06:07:02;;;;;;;44.92;12.45;;;7.40;99.90;;;;;;5048258;28;20046;-75
2021/11/18 06:09:28;;;;;;;39.22;13.13;;;7.40;99.90;;;;;;5060869;28;20075;-75
2021/11/18 06:11:54;;;;;;;42.55;13.60;;;7.40;99.90;;;;;;5064057;28;20485;-75
2021/11/18 06:14:19;;;;;;;41.90;13.27;;;7.40;99.90;;;;;;5059415;28;20020;-75
2021/11/18 06:16:45;;;;;;;40.83;14.25;;;7.40;99.90;;;;;;5049979;28;20081;-75
2021/11/18 06:19:11;;;;;;;40.20;13.00;;;7.40;99.90;;;;;;5036361;28;20116;-76
2021/11/18 06:21:40;;;;;;;41.10;13.18;;;7.40;99.90;;;;;;5040704;28;20036;-75
2021/11/18 06:24:07;;;;;;;46.70;14.13;;;7.40;99.90;;;;;;5049661;28;20044;-74
2021/11/18 06:26:33;;;;;;;73.43;21.67;;;7.40;99.90;;;;;;5048175;28;20036;-75
2021/11/18 06:28:59;;;;;;;87.78;24.35;;;7.50;99.90;;;;;;5051076;28;20037;-75
2021/11/18 06:31:25;;;;;;;61.47;18.42;;;7.60;99.90;;;;;;5048222;28;20103;-75
2021/11/18 06:33:51;;;;;;;48.15;15.40;;;7.60;99.90;;;;;;5039019;28;20078;-75
2021/11/18 06:36:18;;;;;;;37.38;13.52;;;7.70;99.90;;;;;;5049350;28;20024;-75
2021/11/18 06:38:46;;;;;;;33.60;12.38;;;7.80;99.90;;;;;;5042879;28;20030;-76
2021/11/18 06:41:15;;;;;;;43.42;12.98;;;7.80;99.90;;;;;;5048224;28;20028;-76
2021/11/18 06:43:40;;;;;;;42.63;13.27;;;7.80;99.90;;;;;;5051139;28;20021;-75
2021/11/18 06:46:06;;;;;;;36.92;12.77;;;7.80;99.90;;;;;;5043988;28;20512;-75
2021/11/18 06:48:32;;;;;;;40.38;12.50;;;7.80;99.90;;;;;;5045772;28;20025;-76
2021/11/18 06:51:06;;;;;;;38.88;12.95;;;7.80;99.90;;;;;;5042919;28;20025;-76
2021/11/18 06:53:33;;;;;;;37.90;13.05;;;7.80;99.90;;;;;;5046333;28;20383;-76
2021/11/18 06:55:59;;;;;;;43.05;12.55;;;7.80;99.90;;;;;;5048188;28;20092;-76
2021/11/18 06:58:25;;;;;;;42.15;13.35;;;7.80;99.90;;;;;;5050014;28;20021;-77
2021/11/18 07:00:51;;;;;;;43.30;13.27;;;7.70;99.90;;;;;;5053207;28;20040;-75
2021/11/18 07:03:17;;;;;;;41.65;12.68;;;7.70;99.90;;;;;;5050548;28;20162;-77
2021/11/18 07:05:42;;;;;;;40.67;12.88;;;7.60;99.90;;;;;;5032092;28;20044;-77
2021/11/18 07:08:09;;;;;;;31.90;11.77;;;7.50;99.90;;;;;;5036427;28;20029;-77
2021/11/18 07:10:36;;;;;;;44.65;12.60;;;7.50;99.90;;;;;;5050800;28;20385;-75
2021/11/18 07:13:02;;;;;;;36.47;12.43;;;7.40;99.90;;;;;;5051751;28;20025;-76
2021/11/18 07:15:29;;;;;;;40.78;13.50;;;7.40;99.90;;;;;;5048403;28;20029;-76
2021/11/18 07:17:56;;;;;;;38.35;13.25;;;7.30;99.90;;;;;;5055806;28;20056;-75
2021/11/18 07:20:24;;;;;;;38.60;13.63;;;7.30;99.90;;;;;;5066965;28;20029;-76
2021/11/18 07:22:49;;;;;;;36.78;13.32;;;7.40;99.90;;;;;;5054560;28;20028;-76
2021/11/18 07:25:18;;;;;;;40.95;14.35;;;7.40;99.90;;;;;;5069908;28;20044;-76
2021/11/18 07:27:44;;;;;;;44.97;14.93;;;7.50;99.90;;;;;;5054115;28;20028;-76
2021/11/18 07:30:11;;;;;;;40.47;14.20;;;7.50;99.90;;;;;;5070788;28;20028;-75
2021/11/18 07:32:38;;;;;;;51.95;15.02;;;7.50;99.90;;;;;;5071806;28;20020;-76
2021/11/18 07:35:05;;;;;;;47.33;14.55;;;7.50;99.90;;;;;;5054057;28;20024;-76
2021/11/18 07:37:31;;;;;;;43.22;15.43;;;7.50;99.90;;;;;;5071996;28;20024;-76
2021/11/18 07:39:58;;;;;;;48.05;15.43;;;7.50;99.90;;;;;;5071878;28;20029;-76
2021/11/18 07:42:24;;;;;;;43.20;15.43;;;7.50;99.90;;;;;;5053996;28;20149;-75
2021/11/18 07:44:50;;;;;;;42.17;14.77;;;7.50;99.90;;;;;;5071639;28;20028;-76
2021/11/18 07:47:16;;;;;;;44.42;14.77;;;7.50;99.90;;;;;;5080219;28;20448;-75
2021/11/18 07:49:42;;;;;;;41.17;15.48;;;7.50;99.90;;;;;;5071820;28;20139;-75
2021/11/18 07:52:07;;;;;;;50.78;15.55;;;7.40;99.90;;;;;;5053597;28;20032;-75
2021/11/18 07:54:33;;;;;;;46.33;16.33;;;7.40;99.90;;;;;;5054014;28;20105;-76
2021/11/18 07:56:59;;;;;;;35.95;13.60;;;7.30;99.90;;;;;;5071436;28;20113;-75
2021/11/18 07:59:25;;;;;;;45.13;15.18;;;7.30;99.90;;;;;;5066077;28;20427;-75
2021/11/18 08:01:51;;;;;;;44.70;16.27;;;7.30;99.90;;;;;;5051028;28;20119;-76
2021/11/18 08:04:16;;;;;;;55.95;15.40;;;7.30;99.90;;;;;;5069411;28;20077;-75
2021/11/18 08:06:42;;;;;;;46.65;15.35;;;7.20;99.90;;;;;;5071592;28;20040;-76
2021/11/18 08:09:12;;;;;;;41.22;15.25;;;7.30;99.90;;;;;;5070760;28;20142;-75
2021/11/18 08:11:42;;;;;;;52.83;16.35;;;7.20;99.90;;;;;;5072473;28;20419;-76
2021/11/18 08:14:08;;;;;;;39.95;14.38;;;7.30;99.90;;;;;;5053760;28;20112;-75
2021/11/18 08:16:35;;;;;;;53.78;16.38;;;7.20;99.90;;;;;;5069350;28;20075;-75
2021/11/18 08:19:03;;;;;;;46.28;15.57;;;7.20;99.90;;;;;;5069688;28;20031;-75
2021/11/18 08:21:28;;;;;;;43.97;15.65;;;7.20;99.90;;;;;;5054974;28;20050;-75
2021/11/18 08:23:54;;;;;;;55.70;15.93;;;7.20;99.90;;;;;;5054458;28;20542;-75
2021/11/18 08:26:20;;;;;;;44.20;14.63;;;7.30;99.90;;;;;;5069709;28;20120;-75
2021/11/18 08:28:46;;;;;;;49.58;16.30;;;7.30;99.90;;;;;;5067829;28;20031;-75
2021/11/18 08:31:14;;;;;;;46.22;15.23;;;7.30;99.90;;;;;;5078521;28;20432;-76
2021/11/18 08:33:40;;;;;;;53.53;15.70;;;7.30;99.90;;;;;;5071864;28;20040;-75
2021/11/18 08:36:06;;;;;;;47.42;14.15;;;7.30;99.90;;;;;;5053327;28;20035;-75
2021/11/18 08:38:32;;;;;;;44.20;15.10;;;7.30;99.90;;;;;;5054464;28;20024;-75
2021/11/18 08:41:02;;;;;;;44.20;14.25;;;7.30;99.90;;;;;;5069846;28;20032;-75
2021/11/18 08:43:29;;;;;;;48.67;14.65;;;7.40;99.90;;;;;;5069761;28;20100;-75
2021/11/18 08:45:55;;;;;;;44.08;14.32;;;7.40;99.90;;;;;;5058468;28;20035;-75
2021/11/18 08:48:21;;;;;;;49.00;15.18;;;7.50;99.90;;;;;;5069401;28;20482;-75
2021/11/18 08:50:50;;;;;;;47.42;15.35;;;7.60;99.90;;;;;;5069900;28;20509;-75
2021/11/18 08:53:19;;;;;;;43.55;13.85;;;7.60;99.90;;;;;;5067756;28;20024;-75
2021/11/18 08:55:45;;;;;;;56.63;14.63;;;7.70;99.90;;;;;;5052495;28;20500;-75
2021/11/18 08:58:17;;;;;;;47.53;15.13;;;7.70;99.90;;;;;;5067867;28;20429;-75
2021/11/18 09:00:50;;;;;;;54.78;14.45;;;7.80;99.90;;;;;;5062971;28;20056;-75
2021/11/18 09:03:18;;;;;;;46.30;14.82;;;7.90;99.90;;;;;;5069769;28;20066;-75
2021/11/18 09:05:44;;;;;;;43.55;14.05;;;7.90;99.90;;;;;;5070580;28;20107;-75
2021/11/18 09:08:09;;;;;;;45.10;14.38;;;7.90;99.90;;;;;;5069858;28;20051;-75
2021/11/18 09:10:36;;;;;;;46.78;14.00;;;8.00;99.90;;;;;;5059327;28;20473;-75
2021/11/18 09:13:04;;;;;;;44.35;13.32;;;8.10;99.90;;;;;;5066953;28;20168;-75
2021/11/18 09:15:30;;;;;;;45.58;14.15;;;8.10;99.90;;;;;;5069524;28;20025;-76
2021/11/18 09:17:58;;;;;;;36.42;12.90;;;8.20;99.90;;;;;;5074205;28;20082;-74
2021/11/18 09:20:25;;;;;;;42.15;14.38;;;8.20;99.90;;;;;;5072647;28;20079;-74
2021/11/18 09:22:57;;;;;;;43.55;12.57;;;8.30;99.90;;;;;;5068020;28;20482;-73
2021/11/18 09:25:26;;;;;;;41.63;12.88;;;8.40;99.90;;;;;;5069872;28;20037;-75
2021/11/18 09:27:53;;;;;;;48.40;13.40;;;8.40;99.90;;;;;;5073970;28;20036;-74
2021/11/18 09:30:30;;;;;;;43.45;12.27;;;8.50;99.90;;;;;;5072986;28;20056;-74
2021/11/18 09:32:56;;;;;;;44.13;13.30;;;8.60;99.90;;;;;;5073387;28;20032;-74
2021/11/18 09:35:33;;;;;;;38.97;10.85;;;8.80;99.90;;;;;;5073975;28;20104;-74
2021/11/18 09:37:59;;;;;;;41.47;10.63;;;8.80;99.90;;;;;;5073248;28;20381;-74
2021/11/18 09:40:55;;;;;;;43.78;12.18;;;8.90;99.90;;;;;;5074665;28;20409;-73
2021/11/18 09:43:41;;;;;;;36.33;10.85;;;8.90;99.90;;;;;;5072677;28;20470;-73
2021/11/18 09:46:28;;;;;;;30.25;10.75;;;9.00;99.90;;;;;;5067581;28;20086;-73
2021/11/18 09:49:20;;;;;;;33.00;10.90;;;9.00;99.90;;;;;;5072595;28;20147;-74
2021/11/18 09:51:54;;;;;;;36.67;11.35;;;9.00;99.90;;;;;;5072560;28;20020;-74
2021/11/18 09:55:14;;;;;;;27.38;10.52;;;9.00;99.90;;;;;;5058398;28;20016;-74
2021/11/18 09:58:19;;;;;;;35.08;10.25;;;9.10;99.90;;;;;;4992676;28;20069;-73
2021/11/18 10:00:47;;;;;;;39.95;12.32;;;9.10;99.90;;;;;;5072639;28;20078;-74
2021/11/18 10:03:37;;;;;;;37.28;11.65;;;9.10;99.90;;;;;;5073014;28;20223;-73
2021/11/18 10:06:14;;;;;;;30.05;11.05;;;9.20;99.90;;;;;;5054660;28;20028;-74
2021/11/18 10:08:52;;;;;;;36.30;10.73;;;9.20;99.90;;;;;;5073574;28;20114;-73
2021/11/18 10:11:29;;;;;;;35.90;10.80;;;9.30;99.90;;;;;;5068716;28;20028;-74
2021/11/18 10:14:21;;;;;;;34.33;9.75;;;9.40;99.90;;;;;;5071298;28;20490;-73
2021/11/18 10:17:16;;;;;;;31.10;10.55;;;9.40;99.90;;;;;;5073485;28;20056;-74
2021/11/18 10:19:45;;;;;;;36.97;11.05;;;9.60;99.90;;;;;;5045916;28;20535;-74
2021/11/18 10:22:11;;;;;;;29.05;9.60;;;9.70;99.90;;;;;;5072532;28;20492;-74
2021/11/18 10:24:40;;;;;;;38.33;10.73;;;9.80;99.90;;;;;;5072526;28;20039;-74
2021/11/18 10:27:27;;;;;;;36.67;10.48;;;9.80;99.90;;;;;;5072493;28;20497;-74
2021/11/18 10:29:59;;;;;;;34.85;9.57;;;9.90;99.90;;;;;;5054285;28;20479;-73
2021/11/18 10:32:29;;;;;;;31.33;9.88;;;10.00;99.90;;;;;;5064884;28;20035;-73
2021/11/18 10:35:11;;;;;;;32.08;9.20;;;10.00;99.90;;;;;;5071306;28;20474;-74
2021/11/18 10:37:41;;;;;;;34.65;10.32;;;10.10;99.90;;;;;;5058568;28;20028;-73
2021/11/18 10:40:31;;;;;;;28.88;9.13;;;9.90;99.90;;;;;;5080989;28;20107;-73
2021/11/18 10:43:02;;;;;;;27.98;8.60;;;9.90;99.90;;;;;;5054547;28;20032;-73
2021/11/18 10:45:28;;;;;;;25.73;8.67;;;9.90;99.90;;;;;;5054740;28;20504;-73
2021/11/18 10:47:56;;;;;;;31.95;9.07;;;9.90;99.90;;;;;;5071461;28;20028;-73
2021/11/18 10:50:40;;;;;;;28.23;8.93;;;10.00;99.90;;;;;;5073090;28;20040;-73
2021/11/18 10:53:26;;;;;;;28.27;8.35;;;10.00;99.90;;;;;;5070626;28;20040;-73
2021/11/18 10:56:09;;;;;;;27.15;8.27;;;10.00;99.90;;;;;;5070495;28;20016;-73
2021/11/18 10:58:45;;;;;;;21.15;8.23;;;10.10;99.90;;;;;;5057794;28;20025;-73
2021/11/18 11:01:26;;;;;;;30.55;8.48;;;10.20;99.90;;;;;;5071460;28;20028;-74
2021/11/18 11:04:03;;;;;;;23.73;7.43;;;10.20;99.90;;;;;;5072491;28;20474;-73
2021/11/18 11:06:34;;;;;;;25.65;7.45;;;10.30;99.90;;;;;;5072599;28;20081;-74
2021/11/18 11:09:08;;;;;;;30.50;7.35;;;10.40;99.90;;;;;;5071124;28;20386;-74
2021/11/18 11:11:57;;;;;;;33.75;8.70;;;10.40;99.90;;;;;;5069711;28;20025;-74
2021/11/18 11:14:44;;;;;;;21.80;7.72;;;10.40;99.90;;;;;;5072188;28;20028;-74
2021/11/18 11:17:28;;;;;;;28.67;8.43;;;10.50;99.90;;;;;;5068773;28;20536;-73
2021/11/18 11:20:05;;;;;;;33.53;8.82;;;10.60;99.90;;;;;;5069712;28;20466;-74
2021/11/18 11:22:43;;;;;;;27.27;7.32;;;10.60;99.90;;;;;;5072169;28;20027;-74
2021/11/18 11:25:20;;;;;;;21.88;6.93;;;10.70;99.90;;;;;;5061020;28;20028;-73
2021/11/18 11:27:56;;;;;;;25.85;6.70;;;10.70;99.90;;;;;;5069372;28;20036;-73
2021/11/18 11:30:44;;;;;;;29.88;7.30;;;10.70;99.90;;;;;;5070368;28;20028;-73
2021/11/18 11:33:39;;;;;;;28.83;6.88;;;10.70;99.90;;;;;;5065875;28;20024;-73
2021/11/18 11:36:34;;;;;;;24.30;5.30;;;10.90;99.90;;;;;;5051629;28;20020;-73
2021/11/18 11:39:33;;;;;;;24.05;5.82;;;10.90;99.90;;;;;;5069007;28;20158;-73
2021/11/18 11:42:09;;;;;;;28.10;5.13;;;11.00;99.90;;;;;;5063330;28;20029;-73
2021/11/18 11:44:56;;;;;;;20.20;5.22;;;11.00;99.90;;;;;;5051262;28;20096;-74
2021/11/18 11:47:48;;;;;;;26.38;5.18;;;11.10;99.90;;;;;;5066454;28;20031;-74
2021/11/18 11:51:01;;;;;;;25.52;6.28;;;11.10;99.90;;;;;;5051603;28;20040;-73
2021/11/18 11:53:31;;;;;;;21.97;4.97;;;11.10;99.90;;;;;;5046662;28;20037;-73
2021/11/18 11:56:04;;;;;;;21.40;4.32;;;11.20;99.90;;;;;;5053462;28;20422;-73
2021/11/18 11:58:40;;;;;;;24.15;4.57;;;11.20;99.90;;;;;;5071929;28;20027;-73
2021/11/18 12:01:15;;;;;;;24.13;4.80;;;11.20;99.90;;;;;;5071334;28;20056;-73
2021/11/18 12:03:56;;;;;;;20.30;4.97;;;11.20;99.90;;;;;;5070624;28;20077;-73
2021/11/18 12:06:39;;;;;;;18.17;4.10;;;11.30;99.90;;;;;;5070702;28;20035;-73
2021/11/18 12:09:20;;;;;;;23.63;4.30;;;11.30;99.90;;;;;;5058264;28;20017;-74
2021/11/18 12:12:04;;;;;;;17.52;4.72;;;11.30;99.90;;;;;;5051607;28;20441;-72
2021/11/18 12:14:39;;;;;;;19.73;4.10;;;11.30;99.90;;;;;;5051903;28;20446;-74
2021/11/18 12:17:25;;;;;;;21.13;4.40;;;11.30;99.90;;;;;;5051764;28;20049;-73
2021/11/18 12:20:07;;;;;;;27.05;5.15;;;11.30;99.90;;;;;;5063113;28;20033;-75
2021/11/18 12:22:38;;;;;;;17.00;3.92;;;11.30;99.90;;;;;;5071821;28;20036;-74
2021/11/18 12:25:33;;;;;;;25.27;6.43;;;11.30;99.90;;;;;;5071035;28;20112;-73
2021/11/18 12:27:58;;;;;;;32.40;4.85;;;11.30;99.90;;;;;;5070663;28;20064;-74
2021/11/18 12:30:31;;;;;;;15.45;3.50;;;11.40;99.90;;;;;;5071366;28;20482;-74
2021/11/18 12:33:23;;;;;;;20.58;4.22;;;11.40;99.90;;;;;;5066475;28;20028;-74
2021/11/18 12:36:24;;;;;;;15.77;3.63;;;11.40;99.90;;;;;;5014667;28;20039;-73
2021/11/18 12:39:25;;;;;;;25.40;4.93;;;11.50;99.90;;;;;;5071462;28;20047;-74
2021/11/18 12:42:22;;;;;;;26.95;4.75;;;11.50;99.90;;;;;;5063971;28;20467;-73
2021/11/18 12:45:33;;;;;;;18.98;4.00;;;11.50;99.90;;;;;;5070454;28;20028;-73
2021/11/18 12:48:03;;;;;;;19.42;4.05;;;11.50;99.90;;;;;;5069847;28;20037;-74
2021/11/18 12:51:22;;;;;;;23.15;4.22;;;11.60;99.90;;;;;;5073942;28;20118;-73
2021/11/18 12:54:10;;;;;;;17.38;3.97;;;11.60;99.90;;;;;;4974284;28;20043;-74
2021/11/18 12:57:09;;;;;;;23.40;5.10;;;11.60;99.90;;;;;;5053602;28;20060;-74